createdAt,value
2022-07-30T00:02:10.605Z,7.68
2022-07-30T00:04:38.541Z,5.60
2022-07-30T00:07:06.208Z,4.07
2022-07-30T00:09:34.437Z,5.38
2022-07-30T00:12:04.498Z,7.40
2022-07-30T00:14:36.437Z,8.02
2022-07-30T00:17:05.167Z,7.28
2022-07-30T00:19:33.391Z,5.80
2022-07-30T00:22:01.031Z,6.32
2022-07-30T00:24:28.696Z,6.25
2022-07-30T00:26:56.389Z,4.47
2022-07-30T00:29:23.999Z,6.45
2022-07-30T00:31:53.413Z,7.57
2022-07-30T00:34:20.964Z,6.03
2022-07-30T00:36:48.588Z,6.05
2022-07-30T00:39:16.185Z,6.65
2022-07-30T00:41:58.331Z,4.90
2022-07-30T00:44:26.196Z,6.22
2022-07-30T00:46:56.040Z,5.22
2022-07-30T00:49:24.145Z,8.38
2022-07-30T00:51:52.282Z,7.38
2022-07-30T00:54:21.081Z,6.75
2022-07-30T00:56:49.457Z,6.72
2022-07-30T00:59:17.186Z,11.98
2022-07-30T05:03:06.209Z,6.25
2022-07-30T05:05:34.648Z,8.25
2022-07-30T05:08:03.497Z,8.23
2022-07-30T05:10:31.315Z,5.03
2022-07-30T05:12:58.903Z,3.70
2022-07-30T05:15:36.221Z,6.45
2022-07-30T05:18:06.962Z,6.30
2022-07-30T05:20:34.575Z,6.50
2022-07-30T05:23:02.154Z,8.50
2022-07-30T05:25:29.941Z,7.00
2022-07-30T05:27:58.193Z,7.53
2022-07-30T05:30:27.512Z,6.10
2022-07-30T05:32:56.061Z,5.75
2022-07-30T05:35:25.187Z,5.35
2022-07-30T05:37:52.717Z,7.55
2022-07-30T05:40:20.530Z,8.23
2022-07-30T05:42:49.076Z,7.07
2022-07-30T05:45:17.227Z,8.38
2022-07-30T05:47:44.941Z,6.22
2022-07-30T05:50:13.486Z,6.40
2022-07-30T05:52:42.640Z,5.97
2022-07-30T05:55:10.981Z,5.55
2022-07-30T05:57:41.973Z,6.65
2022-07-30T06:00:11.506Z,6.18
2022-07-30T06:02:40.685Z,6.88
2022-07-30T06:05:09.277Z,7.22
2022-07-30T06:07:36.875Z,7.78
2022-07-30T06:10:06.833Z,11.60
2022-07-30T06:12:34.480Z,9.45
2022-07-30T06:15:02.047Z,8.70
2022-07-30T06:17:29.952Z,9.57
2022-07-30T06:20:00.312Z,7.57
2022-07-30T06:22:28.047Z,8.02
2022-07-30T06:24:55.671Z,7.97
2022-07-30T06:27:25.905Z,6.78
2022-07-30T06:29:53.564Z,6.25
2022-07-30T06:32:21.190Z,6.25
2022-07-30T06:34:53.323Z,5.63
2022-07-30T06:38:06.414Z,5.30
2022-07-30T06:40:13.668Z,5.57
2022-07-30T06:42:42.582Z,5.45
2022-07-30T06:45:11.461Z,6.28
2022-07-30T06:47:39.040Z,7.57
2022-07-30T06:50:08.027Z,5.10
2022-07-30T06:52:36.911Z,7.35
2022-07-30T06:55:05.362Z,7.20
2022-07-30T06:57:35.470Z,5.25
2022-07-30T07:00:08.465Z,5.97
2022-07-30T07:02:36.048Z,10.80
2022-07-30T07:05:03.884Z,8.10
2022-07-30T07:07:41.382Z,6.45
2022-07-30T07:10:11.473Z,5.15
2022-07-30T07:12:39.182Z,5.72
2022-07-30T07:15:09.732Z,6.85
2022-07-30T07:17:37.369Z,5.20
2022-07-30T07:20:06.381Z,6.30
2022-07-30T07:22:33.990Z,5.75
2022-07-30T07:25:01.587Z,7.53
2022-07-30T07:27:29.196Z,5.40
2022-07-30T07:30:01.759Z,7.13
2022-07-30T07:32:35.168Z,5.90
2022-07-30T07:35:03.331Z,8.73
2022-07-30T07:37:31.065Z,8.45
2022-07-30T07:39:58.642Z,8.27
2022-07-30T07:42:26.213Z,5.13
2022-07-30T07:44:53.775Z,6.03
2022-07-30T07:47:21.353Z,4.65
2022-07-30T07:49:50.270Z,6.00
2022-07-30T07:52:17.838Z,8.00
2022-07-30T07:54:45.527Z,5.80
2022-07-30T07:57:14.718Z,7.13
2022-07-30T07:59:43.065Z,4.95
2022-07-30T08:02:10.771Z,4.15
2022-07-30T08:04:38.496Z,6.40
2022-07-30T08:07:07.720Z,10.48
2022-07-30T08:09:40.766Z,5.53
2022-07-30T08:12:13.114Z,8.80
2022-07-30T08:14:40.919Z,5.22
2022-07-30T08:17:09.127Z,7.03
2022-07-30T08:19:37.129Z,5.38
2022-07-30T08:22:05.282Z,5.22
2022-07-30T08:24:34.489Z,4.30
2022-07-30T08:27:02.341Z,4.65
2022-07-30T08:29:30.771Z,4.60
2022-07-30T08:31:58.635Z,3.92
2022-07-30T08:34:26.424Z,5.13
2022-07-30T08:36:54.027Z,3.53
2022-07-30T08:39:21.573Z,5.47
2022-07-30T08:41:50.509Z,6.50
2022-07-30T08:44:21.679Z,3.90
2022-07-30T08:46:51.353Z,3.97
2022-07-30T08:49:19.983Z,4.15
2022-07-30T08:51:47.662Z,7.55
2022-07-30T08:54:15.388Z,5.88
2022-07-30T08:56:43.546Z,3.53
2022-07-30T08:59:12.887Z,4.28
2022-07-30T09:01:40.528Z,3.67
2022-07-30T09:04:08.250Z,3.72
2022-07-30T09:06:37.186Z,3.22
2022-07-30T09:09:04.892Z,4.07
2022-07-30T09:11:34.891Z,3.85
2022-07-30T09:14:09.428Z,6.70
2022-07-30T09:16:39.260Z,3.13
2022-07-30T09:19:14.832Z,4.13
2022-07-30T09:21:43.852Z,4.50
2022-07-30T09:24:13.278Z,3.85
2022-07-30T09:26:55.859Z,3.78
2022-07-30T09:29:26.044Z,4.43
2022-07-30T09:31:57.324Z,4.78
2022-07-30T09:34:29.869Z,3.60
2022-07-30T09:36:58.480Z,4.63
2022-07-30T09:39:30.906Z,6.93
2022-07-30T09:41:59.421Z,3.60
2022-07-30T09:44:29.662Z,5.53
2022-07-30T09:46:59.583Z,3.85
2022-07-30T09:49:28.791Z,4.78
2022-07-30T09:51:57.875Z,4.18
2022-07-30T09:54:26.566Z,4.78
2022-07-30T09:57:23.206Z,4.68
2022-07-30T09:59:56.651Z,5.05
2022-07-30T10:02:32.697Z,3.08
2022-07-30T10:05:14.443Z,3.83
2022-07-30T10:07:50.998Z,6.80
2022-07-30T10:10:25.663Z,7.03
2022-07-30T10:12:58.887Z,4.55
2022-07-30T10:15:30.678Z,5.35
2022-07-30T10:18:02.842Z,4.18
2022-07-30T10:20:35.148Z,4.03
2022-07-30T10:23:07.639Z,5.80
2022-07-30T10:25:37.011Z,7.97
2022-07-30T10:28:18.157Z,5.43
2022-07-30T10:30:46.120Z,4.03
2022-07-30T10:33:36.395Z,7.05
2022-07-30T10:36:08.796Z,4.20
2022-07-30T10:38:41.612Z,5.75
2022-07-30T10:41:42.196Z,4.65
2022-07-30T10:44:19.600Z,4.43
2022-07-30T10:46:56.781Z,5.57
2022-07-30T10:49:27.377Z,4.30
2022-07-30T10:52:02.546Z,5.10
2022-07-30T10:54:41.641Z,3.90
2022-07-30T10:57:15.124Z,4.07
2022-07-30T11:00:11.981Z,6.85
2022-07-30T11:02:40.095Z,5.47
2022-07-30T11:05:45.282Z,4.65
2022-07-30T11:08:36.261Z,3.90
2022-07-30T11:12:01.127Z,4.50
2022-07-30T11:15:07.122Z,8.02
2022-07-30T11:18:00.990Z,3.88
2022-07-30T11:20:31.765Z,3.92
2022-07-30T11:23:14.261Z,4.78
2022-07-30T11:25:50.178Z,4.10
2022-07-30T11:28:37.356Z,3.17
2022-07-30T11:31:36.935Z,4.38
2022-07-30T11:34:27.048Z,3.38
2022-07-30T11:37:18.584Z,6.55
2022-07-30T11:40:10.844Z,4.63
2022-07-30T11:42:41.363Z,5.30
2022-07-30T11:45:32.949Z,4.85
2022-07-30T11:48:02.540Z,8.13
2022-07-30T11:50:33.204Z,5.60
2022-07-30T11:53:04.091Z,5.25
2022-07-30T11:55:34.421Z,8.63
2022-07-30T11:58:05.774Z,7.07
2022-07-30T12:00:36.445Z,4.80
2022-07-30T12:03:12.364Z,4.85
2022-07-30T12:05:40.998Z,6.28
2022-07-30T12:08:33.378Z,5.68
2022-07-30T12:10:59.822Z,3.88
2022-07-30T12:13:45.021Z,6.95
2022-07-30T12:16:15.838Z,4.80
2022-07-30T12:18:44.250Z,5.97
2022-07-30T12:21:13.547Z,5.60
2022-07-30T12:23:43.905Z,4.85
2022-07-30T12:26:22.288Z,6.55
2022-07-30T12:28:50.417Z,3.75
2022-07-30T12:31:18.652Z,4.25
2022-07-30T12:33:47.411Z,5.03
2022-07-30T12:36:25.865Z,4.82
2022-07-30T12:38:56.566Z,5.25
2022-07-30T12:41:24.913Z,3.38
2022-07-30T12:43:54.294Z,4.35
2022-07-30T12:46:24.544Z,4.47
2022-07-30T12:48:54.364Z,3.95
2022-07-30T12:51:24.377Z,4.00
2022-07-30T12:53:53.571Z,6.32
2022-07-30T12:56:24.700Z,6.72
2022-07-30T12:58:52.590Z,7.03
2022-07-30T13:01:20.539Z,4.32
2022-07-30T13:03:48.237Z,5.05
2022-07-30T13:06:17.986Z,4.60
2022-07-30T13:08:47.902Z,4.40
2022-07-30T13:11:16.316Z,7.53
2022-07-30T13:13:45.885Z,7.93
2022-07-30T13:16:14.165Z,3.90
2022-07-30T13:18:41.955Z,4.65
2022-07-30T13:21:10.255Z,5.13
2022-07-30T13:23:38.872Z,7.47
2022-07-30T13:26:08.122Z,3.78
2022-07-30T13:28:36.330Z,5.55
2022-07-30T13:31:05.405Z,7.30
2022-07-30T13:33:32.970Z,6.43
2022-07-30T13:36:00.635Z,4.43
2022-07-30T13:38:29.410Z,4.35
2022-07-30T13:41:02.251Z,6.18
2022-07-30T13:43:33.609Z,4.10
2022-07-30T13:46:02.849Z,5.80
2022-07-30T13:48:31.871Z,4.25
2022-07-30T13:51:01.129Z,4.25
2022-07-30T13:53:29.375Z,4.20
2022-07-30T13:55:59.286Z,5.35
2022-07-30T13:58:27.696Z,4.45
2022-07-30T14:00:55.369Z,4.90
2022-07-30T14:03:23.077Z,7.78
2022-07-30T14:05:52.770Z,3.88
2022-07-30T14:08:20.337Z,4.15
2022-07-30T14:10:47.923Z,4.78
2022-07-30T14:13:18.990Z,3.08
2022-07-30T14:15:49.425Z,4.95
2022-07-30T14:18:17.412Z,3.60
2022-07-30T14:20:48.561Z,3.40
2022-07-30T14:23:18.141Z,4.63
2022-07-30T14:25:45.959Z,3.13
2022-07-30T14:28:14.045Z,4.78
2022-07-30T14:30:41.684Z,5.20
2022-07-30T14:33:09.408Z,4.93
2022-07-30T14:35:37.289Z,4.07
2022-07-30T14:38:05.819Z,4.25
2022-07-30T14:40:34.986Z,3.97
2022-07-30T14:43:02.549Z,4.25
2022-07-30T14:45:30.117Z,6.70
2022-07-30T14:47:57.731Z,4.18
2022-07-30T14:50:25.369Z,4.65
2022-07-30T14:52:53.083Z,8.00
2022-07-30T14:55:20.798Z,6.53
2022-07-30T14:57:49.766Z,5.45
2022-07-30T15:00:17.887Z,6.82
2022-07-30T15:02:45.515Z,5.03
2022-07-30T15:05:13.118Z,4.35
2022-07-30T15:07:40.761Z,5.63
2022-07-30T15:10:09.686Z,7.53
2022-07-30T15:12:37.542Z,7.68
2022-07-30T15:15:08.926Z,9.35
2022-07-30T15:17:38.654Z,8.02
2022-07-30T15:20:08.873Z,5.43
2022-07-30T15:22:36.740Z,10.73
2022-07-30T15:25:04.824Z,6.63
2022-07-30T15:27:34.176Z,6.07
2022-07-30T15:30:02.415Z,5.93
2022-07-30T15:32:31.651Z,4.82
2022-07-30T15:34:59.545Z,5.50
2022-07-30T15:37:27.148Z,5.68
2022-07-30T15:39:54.722Z,7.45
2022-07-30T15:42:22.596Z,6.68
2022-07-30T15:45:14.278Z,5.22
2022-07-30T15:47:39.126Z,4.43
2022-07-30T15:50:07.814Z,7.32
2022-07-30T15:52:36.726Z,6.25
2022-07-30T15:55:05.140Z,4.93
2022-07-30T15:57:32.838Z,4.65
2022-07-30T16:00:00.549Z,4.75
2022-07-30T16:02:28.247Z,7.22
2022-07-30T16:04:57.150Z,5.68
2022-07-30T16:07:25.426Z,6.88
2022-07-30T16:09:55.289Z,3.92
2022-07-30T16:12:23.603Z,6.68
2022-07-30T16:14:51.202Z,6.75
2022-07-30T16:17:18.829Z,5.05
2022-07-30T16:19:46.422Z,5.85
2022-07-30T16:22:21.596Z,5.63
2022-07-30T16:24:52.045Z,5.60
2022-07-30T16:27:20.097Z,9.63
2022-07-30T16:29:47.678Z,6.65
2022-07-30T16:32:15.294Z,5.45
2022-07-30T16:34:42.913Z,4.60
2022-07-30T16:37:10.585Z,8.02
2022-07-30T16:39:39.496Z,4.63
2022-07-30T16:42:07.283Z,6.38
2022-07-30T16:44:35.312Z,4.65
2022-07-30T16:47:03.996Z,4.80
2022-07-30T16:49:31.661Z,7.15
2022-07-30T16:51:59.354Z,5.85
2022-07-30T16:54:27.098Z,6.75
2022-07-30T16:56:56.017Z,7.32
2022-07-30T16:59:23.621Z,5.57
2022-07-30T17:01:51.421Z,7.63
2022-07-30T17:04:19.115Z,4.88
2022-07-30T17:06:47.072Z,5.93
2022-07-30T17:09:15.980Z,6.68
2022-07-30T17:11:47.027Z,6.20
2022-07-30T17:14:22.091Z,6.63
2022-07-30T17:16:50.172Z,7.55
2022-07-30T17:19:17.803Z,6.18
2022-07-30T17:21:45.528Z,9.27
2022-07-30T17:24:13.729Z,6.18
2022-07-30T17:26:43.837Z,4.70
2022-07-30T17:29:14.661Z,5.55
2022-07-30T17:31:45.383Z,4.95
2022-07-30T17:34:15.428Z,5.40
2022-07-30T17:36:51.635Z,5.53
2022-07-30T17:40:19.878Z,7.65
2022-07-30T17:42:08.511Z,4.80
2022-07-30T17:44:36.566Z,6.03
2022-07-30T17:47:05.604Z,6.85
2022-07-30T17:49:33.407Z,7.32
2022-07-30T17:52:02.885Z,5.30
2022-07-30T17:54:31.001Z,5.13
2022-07-30T17:56:58.666Z,5.90
2022-07-30T17:59:26.351Z,5.30
2022-07-30T18:01:54.130Z,6.70
2022-07-30T18:04:23.168Z,5.20
2022-07-30T18:06:51.028Z,5.70
2022-07-30T18:09:18.696Z,5.28
2022-07-30T18:11:46.373Z,5.43
2022-07-30T18:14:14.017Z,5.95
2022-07-30T18:16:41.844Z,6.00
2022-07-30T18:19:09.495Z,5.82
2022-07-30T18:21:56.193Z,7.13
2022-07-30T18:24:25.160Z,6.65
2022-07-30T18:26:53.667Z,6.75
2022-07-30T18:29:21.274Z,4.75
2022-07-30T18:31:48.917Z,7.68
2022-07-30T18:34:17.010Z,6.22
2022-07-30T18:36:44.623Z,7.35
2022-07-30T18:39:13.534Z,6.35
2022-07-30T18:41:41.169Z,6.95
2022-07-30T18:44:09.016Z,8.50
2022-07-30T18:46:36.656Z,6.60
2022-07-30T18:49:21.254Z,7.93
2022-07-30T18:51:51.985Z,5.60
2022-07-30T18:54:21.176Z,6.13
2022-07-30T18:56:48.766Z,7.43
2022-07-30T18:59:16.378Z,6.82
2022-07-30T19:01:44.056Z,6.43
2022-07-30T19:04:11.761Z,6.95
2022-07-30T19:06:39.408Z,5.75
2022-07-30T19:09:10.145Z,6.53
2022-07-30T19:11:47.034Z,6.22
2022-07-30T19:14:15.316Z,9.43
2022-07-30T19:16:43.507Z,5.65
2022-07-30T19:19:13.575Z,6.55
2022-07-30T19:21:41.559Z,9.70
2022-07-30T19:24:10.104Z,12.27
2022-07-30T19:26:39.526Z,4.32
2022-07-30T19:29:09.650Z,6.38
2022-07-30T19:31:37.431Z,6.45
2022-07-30T19:34:06.983Z,10.15
2022-07-30T19:36:34.702Z,8.30
2022-07-30T19:39:06.801Z,6.97
2022-07-30T19:41:40.352Z,7.50
2022-07-30T19:44:11.243Z,7.50
2022-07-30T19:46:39.216Z,7.15
2022-07-30T19:49:10.138Z,7.05
2022-07-30T19:52:22.274Z,7.75
2022-07-30T19:54:26.206Z,8.10
2022-07-30T19:56:53.778Z,7.78
2022-07-30T19:59:25.300Z,10.10
2022-07-30T20:02:10.493Z,7.60
2022-07-30T20:04:41.289Z,12.82
2022-07-30T20:07:11.378Z,6.45
2022-07-30T20:09:42.936Z,6.72
2022-07-30T20:12:14.406Z,7.85
2022-07-30T20:14:43.748Z,7.40
2022-07-30T20:17:11.502Z,6.03
2022-07-30T20:19:40.656Z,6.40
2022-07-30T20:22:15.765Z,8.70
2022-07-30T20:24:43.430Z,8.40
2022-07-30T20:27:37.252Z,8.52
2022-07-30T20:30:00.918Z,8.63
2022-07-30T20:32:29.276Z,9.40
2022-07-30T20:34:57.215Z,10.82
2022-07-30T20:37:27.377Z,10.88
2022-07-30T20:39:55.825Z,9.88
2022-07-30T20:42:24.179Z,15.52
2022-07-30T20:44:54.340Z,22.23
2022-07-30T20:47:34.389Z,36.90
2022-07-30T20:50:06.084Z,33.08
2022-07-30T20:52:37.602Z,29.80
2022-07-30T20:55:08.471Z,29.35
2022-07-30T21:00:25.297Z,22.50
2022-07-30T21:02:54.293Z,23.52
2022-07-30T21:05:22.170Z,17.63
2022-07-30T21:07:52.812Z,17.95
2022-07-30T21:10:21.646Z,21.75
2022-07-30T21:12:53.279Z,16.45
2022-07-30T21:15:32.566Z,15.35
2022-07-30T21:18:02.093Z,10.85
2022-07-30T21:20:31.661Z,14.32
2022-07-30T21:23:05.034Z,11.85
2022-07-30T21:25:33.525Z,9.73
2022-07-30T21:28:03.117Z,10.02
2022-07-30T21:30:32.163Z,8.85
2022-07-30T21:33:02.779Z,6.57
2022-07-30T21:35:31.951Z,6.70
2022-07-30T21:38:00.123Z,8.13
2022-07-30T21:40:28.684Z,7.18
2022-07-30T21:42:57.447Z,6.82
2022-07-30T21:45:27.674Z,9.80
2022-07-30T21:48:09.301Z,9.10
2022-07-30T21:50:39.853Z,7.68
2022-07-30T21:53:07.888Z,8.55
2022-07-30T21:55:52.983Z,5.50
2022-07-30T21:58:25.896Z,6.70
2022-07-30T22:01:16.322Z,7.72
2022-07-30T22:04:02.058Z,6.75
2022-07-30T22:06:35.537Z,7.15
2022-07-30T22:09:09.955Z,6.68
2022-07-30T22:11:49.394Z,8.90
2022-07-30T22:14:18.160Z,6.18
2022-07-30T22:16:47.017Z,5.93
2022-07-30T22:22:26.076Z,5.88
2022-07-30T22:24:52.282Z,8.07
2022-07-30T22:27:19.932Z,5.97
2022-07-30T22:29:49.635Z,6.25
2022-07-30T22:32:17.749Z,6.53
2022-07-30T22:34:47.271Z,6.38
2022-07-30T22:37:18.439Z,6.43
2022-07-30T22:39:50.864Z,9.02
2022-07-30T22:42:24.332Z,7.40
2022-07-30T22:44:52.743Z,8.15
2022-07-30T22:47:51.317Z,7.63
2022-07-30T22:50:11.616Z,7.32
2022-07-30T22:52:56.716Z,8.27
2022-07-30T22:55:30.848Z,7.95
2022-07-30T22:57:59.176Z,10.40
2022-07-30T23:00:28.586Z,6.30
2022-07-30T23:02:57.228Z,8.55
2022-07-30T23:05:26.303Z,8.80
2022-07-30T23:07:54.482Z,10.02
2022-07-30T23:10:22.971Z,7.30
2022-07-30T23:12:31.389Z,5.82
2022-07-30T23:12:32.484Z,26.92
2022-07-30T23:12:53.562Z,6.65
2022-07-30T23:15:21.967Z,8.80
2022-07-30T23:17:49.630Z,8.93
2022-07-30T23:20:21.133Z,7.63
2022-07-30T23:22:50.316Z,7.50
2022-07-30T23:25:18.473Z,6.88
2022-07-30T23:27:46.800Z,7.53
2022-07-30T23:30:14.953Z,7.97
2022-07-30T23:32:42.972Z,6.28
2022-07-30T23:35:11.313Z,6.85
2022-07-30T23:37:48.021Z,7.85
2022-07-30T23:40:19.229Z,8.48
2022-07-30T23:42:47.044Z,7.55
2022-07-30T23:45:14.780Z,8.70
2022-07-30T23:47:56.595Z,7.43
2022-07-30T23:50:30.319Z,11.27
2022-07-30T23:52:58.096Z,5.72
2022-07-30T23:55:27.791Z,8.60
2022-07-30T23:57:55.826Z,5.15
